sensor_id;sensor_type;location;lat;lon;timestamp;P1;durP1;ratioP1;P2;durP2;ratioP2
11537;SDS011;50159;49.426;11.182;2022-09-12T00:01:15;3.60;;;3.30;;
11537;SDS011;50159;49.426;11.182;2022-09-12T00:03:51;3.10;;;2.93;;
11537;SDS011;50159;49.426;11.182;2022-09-12T00:06:23;3.30;;;3.20;;
11537;SDS011;50159;49.426;11.182;2022-09-12T00:08:57;3.47;;;3.30;;
11537;SDS011;50159;49.426;11.182;2022-09-12T00:11:28;4.23;;;3.80;;
11537;SDS011;50159;49.426;11.182;2022-09-12T00:13:56;5.27;;;3.33;;
11537;SDS011;50159;49.426;11.182;2022-09-12T00:16:27;3.57;;;3.37;;
11537;SDS011;50159;49.426;11.182;2022-09-12T00:18:56;3.53;;;3.10;;
11537;SDS011;50159;49.426;11.182;2022-09-12T00:21:24;3.20;;;3.10;;
11537;SDS011;50159;49.426;11.182;2022-09-12T00:23:52;3.43;;;3.27;;
11537;SDS011;50159;49.426;11.182;2022-09-12T00:26:20;3.33;;;3.23;;
11537;SDS011;50159;49.426;11.182;2022-09-12T00:28:47;2.97;;;2.87;;
11537;SDS011;50159;49.426;11.182;2022-09-12T00:31:16;2.97;;;2.87;;
11537;SDS011;50159;49.426;11.182;2022-09-12T00:33:46;3.57;;;3.37;;
11537;SDS011;50159;49.426;11.182;2022-09-12T00:36:14;3.13;;;3.00;;
11537;SDS011;50159;49.426;11.182;2022-09-12T00:38:45;3.63;;;3.43;;
11537;SDS011;50159;49.426;11.182;2022-09-12T00:41:18;3.57;;;3.37;;
11537;SDS011;50159;49.426;11.182;2022-09-12T00:46:41;3.70;;;3.60;;
11537;SDS011;50159;49.426;11.182;2022-09-12T00:52:02;3.07;;;2.87;;
11537;SDS011;50159;49.426;11.182;2022-09-12T00:54:38;3.30;;;3.20;;
11537;SDS011;50159;49.426;11.182;2022-09-12T00:57:22;3.77;;;3.53;;
11537;SDS011;50159;49.426;11.182;2022-09-12T01:00:00;3.37;;;3.07;;
11537;SDS011;50159;49.426;11.182;2022-09-12T01:02:43;5.43;;;4.00;;
11537;SDS011;50159;49.426;11.182;2022-09-12T01:05:18;4.27;;;3.97;;
11537;SDS011;50159;49.426;11.182;2022-09-12T01:07:48;3.60;;;3.40;;
11537;SDS011;50159;49.426;11.182;2022-09-12T01:10:17;3.50;;;3.30;;
11537;SDS011;50159;49.426;11.182;2022-09-12T01:12:45;3.50;;;3.40;;
11537;SDS011;50159;49.426;11.182;2022-09-12T01:15:13;4.00;;;3.00;;
11537;SDS011;50159;49.426;11.182;2022-09-12T01:20:32;3.20;;;3.00;;
11537;SDS011;50159;49.426;11.182;2022-09-12T01:32:37;3.60;;;3.50;;
11537;SDS011;50159;49.426;11.182;2022-09-12T01:39:09;4.30;;;3.80;;
11537;SDS011;50159;49.426;11.182;2022-09-12T01:41:47;3.43;;;3.33;;
11537;SDS011;50159;49.426;11.182;2022-09-12T01:47:40;3.43;;;3.33;;
11537;SDS011;50159;49.426;11.182;2022-09-12T01:50:17;3.70;;;3.50;;
11537;SDS011;50159;49.426;11.182;2022-09-12T01:53:32;3.30;;;3.20;;
11537;SDS011;50159;49.426;11.182;2022-09-12T01:55:50;3.63;;;3.37;;
11537;SDS011;50159;49.426;11.182;2022-09-12T01:58:26;3.40;;;3.30;;
11537;SDS011;50159;49.426;11.182;2022-09-12T02:01:22;4.43;;;3.53;;
11537;SDS011;50159;49.426;11.182;2022-09-12T02:04:02;3.40;;;3.30;;
11537;SDS011;50159;49.426;11.182;2022-09-12T02:06:51;3.70;;;3.50;;
11537;SDS011;50159;49.426;11.182;2022-09-12T02:09:39;3.77;;;3.57;;
11537;SDS011;50159;49.426;11.182;2022-09-12T02:12:53;3.80;;;3.40;;
11537;SDS011;50159;49.426;11.182;2022-09-12T02:15:28;3.47;;;3.27;;
11537;SDS011;50159;49.426;11.182;2022-09-12T02:18:03;3.63;;;3.43;;
11537;SDS011;50159;49.426;11.182;2022-09-12T02:20:33;3.90;;;3.70;;
11537;SDS011;50159;49.426;11.182;2022-09-12T02:23:15;4.57;;;4.27;;
11537;SDS011;50159;49.426;11.182;2022-09-12T02:25:52;3.60;;;3.43;;
11537;SDS011;50159;49.426;11.182;2022-09-12T02:28:26;3.50;;;3.30;;
11537;SDS011;50159;49.426;11.182;2022-09-12T02:31:04;3.80;;;3.50;;
11537;SDS011;50159;49.426;11.182;2022-09-12T02:37:00;5.43;;;3.37;;
11537;SDS011;50159;49.426;11.182;2022-09-12T02:39:55;3.70;;;3.50;;
11537;SDS011;50159;49.426;11.182;2022-09-12T02:42:23;3.90;;;3.60;;
11537;SDS011;50159;49.426;11.182;2022-09-12T02:44:51;3.80;;;3.60;;
11537;SDS011;50159;49.426;11.182;2022-09-12T02:47:24;3.53;;;3.40;;
11537;SDS011;50159;49.426;11.182;2022-09-12T02:50:01;3.73;;;3.60;;
11537;SDS011;50159;49.426;11.182;2022-09-12T02:52:30;4.53;;;3.70;;
11537;SDS011;50159;49.426;11.182;2022-09-12T02:54:57;4.23;;;4.00;;
11537;SDS011;50159;49.426;11.182;2022-09-12T02:57:25;3.80;;;3.60;;
11537;SDS011;50159;49.426;11.182;2022-09-12T02:59:53;3.63;;;3.43;;
11537;SDS011;50159;49.426;11.182;2022-09-12T03:05:12;3.93;;;3.73;;
11537;SDS011;50159;49.426;11.182;2022-09-12T03:08:10;4.07;;;3.87;;
11537;SDS011;50159;49.426;11.182;2022-09-12T03:10:57;3.80;;;3.50;;
11537;SDS011;50159;49.426;11.182;2022-09-12T03:19:28;3.30;;;3.10;;
11537;SDS011;50159;49.426;11.182;2022-09-12T03:22:24;3.00;;;2.90;;
11537;SDS011;50159;49.426;11.182;2022-09-12T03:25:07;3.83;;;3.63;;
11537;SDS011;50159;49.426;11.182;2022-09-12T03:28:05;4.10;;;3.80;;
11537;SDS011;50159;49.426;11.182;2022-09-12T03:30:43;3.53;;;3.33;;
11537;SDS011;50159;49.426;11.182;2022-09-12T03:33:14;3.93;;;3.67;;
11537;SDS011;50159;49.426;11.182;2022-09-12T03:35:44;3.70;;;3.60;;
11537;SDS011;50159;49.426;11.182;2022-09-12T03:38:12;6.77;;;4.00;;
11537;SDS011;50159;49.426;11.182;2022-09-12T03:40:40;5.03;;;3.80;;
11537;SDS011;50159;49.426;11.182;2022-09-12T03:43:07;4.10;;;3.90;;
11537;SDS011;50159;49.426;11.182;2022-09-12T03:45:35;4.70;;;4.30;;
11537;SDS011;50159;49.426;11.182;2022-09-12T03:48:03;5.47;;;4.27;;
11537;SDS011;50159;49.426;11.182;2022-09-12T03:50:31;4.87;;;4.57;;
11537;SDS011;50159;49.426;11.182;2022-09-12T03:52:58;4.50;;;4.20;;
11537;SDS011;50159;49.426;11.182;2022-09-12T03:55:26;4.00;;;3.70;;
11537;SDS011;50159;49.426;11.182;2022-09-12T03:57:53;3.73;;;3.57;;
11537;SDS011;50159;49.426;11.182;2022-09-12T04:00:20;4.27;;;3.90;;
11537;SDS011;50159;49.426;11.182;2022-09-12T04:02:47;4.43;;;4.10;;
11537;SDS011;50159;49.426;11.182;2022-09-12T04:05:17;3.53;;;3.33;;
11537;SDS011;50159;49.426;11.182;2022-09-12T04:07:44;3.80;;;3.60;;
11537;SDS011;50159;49.426;11.182;2022-09-12T04:10:11;4.17;;;3.90;;
11537;SDS011;50159;49.426;11.182;2022-09-12T04:12:41;3.27;;;3.17;;
11537;SDS011;50159;49.426;11.182;2022-09-12T04:15:10;4.03;;;3.80;;
11537;SDS011;50159;49.426;11.182;2022-09-12T04:17:37;5.87;;;3.77;;
11537;SDS011;50159;49.426;11.182;2022-09-12T04:20:03;4.77;;;4.47;;
11537;SDS011;50159;49.426;11.182;2022-09-12T04:22:31;4.70;;;4.13;;
11537;SDS011;50159;49.426;11.182;2022-09-12T04:24:58;4.20;;;3.90;;
11537;SDS011;50159;49.426;11.182;2022-09-12T04:27:25;4.27;;;4.00;;
11537;SDS011;50159;49.426;11.182;2022-09-12T04:29:52;5.17;;;4.67;;
11537;SDS011;50159;49.426;11.182;2022-09-12T04:32:20;4.03;;;3.73;;
11537;SDS011;50159;49.426;11.182;2022-09-12T04:34:47;4.20;;;4.00;;
11537;SDS011;50159;49.426;11.182;2022-09-12T04:37:14;4.13;;;3.83;;
11537;SDS011;50159;49.426;11.182;2022-09-12T04:39:41;4.50;;;4.30;;
11537;SDS011;50159;49.426;11.182;2022-09-12T04:42:08;3.73;;;3.60;;
11537;SDS011;50159;49.426;11.182;2022-09-12T04:44:35;3.83;;;3.63;;
11537;SDS011;50159;49.426;11.182;2022-09-12T04:47:02;3.97;;;3.77;;
11537;SDS011;50159;49.426;11.182;2022-09-12T04:49:29;3.57;;;3.47;;
11537;SDS011;50159;49.426;11.182;2022-09-12T04:51:56;3.73;;;3.53;;
11537;SDS011;50159;49.426;11.182;2022-09-12T04:54:23;4.17;;;3.63;;
11537;SDS011;50159;49.426;11.182;2022-09-12T04:56:50;3.63;;;3.40;;
11537;SDS011;50159;49.426;11.182;2022-09-12T04:59:18;6.53;;;3.70;;
11537;SDS011;50159;49.426;11.182;2022-09-12T05:01:46;3.47;;;3.37;;
11537;SDS011;50159;49.426;11.182;2022-09-12T05:04:14;3.83;;;3.63;;
11537;SDS011;50159;49.426;11.182;2022-09-12T05:06:41;3.50;;;3.30;;
11537;SDS011;50159;49.426;11.182;2022-09-12T05:09:09;4.40;;;4.20;;
11537;SDS011;50159;49.426;11.182;2022-09-12T05:11:39;4.17;;;3.90;;
11537;SDS011;50159;49.426;11.182;2022-09-12T05:14:29;5.27;;;4.13;;
11537;SDS011;50159;49.426;11.182;2022-09-12T05:16:57;4.90;;;4.60;;
11537;SDS011;50159;49.426;11.182;2022-09-12T05:19:26;5.30;;;4.30;;
11537;SDS011;50159;49.426;11.182;2022-09-12T05:21:55;4.97;;;4.67;;
11537;SDS011;50159;49.426;11.182;2022-09-12T05:24:23;5.20;;;4.87;;
11537;SDS011;50159;49.426;11.182;2022-09-12T05:26:50;6.20;;;4.53;;
11537;SDS011;50159;49.426;11.182;2022-09-12T05:29:17;5.50;;;5.10;;
11537;SDS011;50159;49.426;11.182;2022-09-12T05:31:44;4.90;;;4.50;;
11537;SDS011;50159;49.426;11.182;2022-09-12T05:34:17;5.60;;;5.10;;
11537;SDS011;50159;49.426;11.182;2022-09-12T05:36:45;5.90;;;5.40;;
11537;SDS011;50159;49.426;11.182;2022-09-12T05:39:12;5.47;;;5.07;;
11537;SDS011;50159;49.426;11.182;2022-09-12T05:41:39;5.83;;;5.30;;
11537;SDS011;50159;49.426;11.182;2022-09-12T05:44:06;5.50;;;5.10;;
11537;SDS011;50159;49.426;11.182;2022-09-12T05:46:39;5.17;;;4.77;;
11537;SDS011;50159;49.426;11.182;2022-09-12T05:49:15;5.73;;;5.23;;
11537;SDS011;50159;49.426;11.182;2022-09-12T05:51:44;5.88;;;5.38;;
11537;SDS011;50159;49.426;11.182;2022-09-12T05:54:12;5.83;;;5.27;;
11537;SDS011;50159;49.426;11.182;2022-09-12T05:56:43;5.87;;;5.40;;
11537;SDS011;50159;49.426;11.182;2022-09-12T06:01:44;9.47;;;5.67;;
11537;SDS011;50159;49.426;11.182;2022-09-12T06:04:12;6.50;;;5.90;;
11537;SDS011;50159;49.426;11.182;2022-09-12T06:06:40;7.47;;;6.57;;
11537;SDS011;50159;49.426;11.182;2022-09-12T06:09:10;9.33;;;5.97;;
11537;SDS011;50159;49.426;11.182;2022-09-12T06:11:39;6.80;;;6.20;;
11537;SDS011;50159;49.426;11.182;2022-09-12T06:14:07;8.13;;;6.30;;
11537;SDS011;50159;49.426;11.182;2022-09-12T06:16:36;7.47;;;6.70;;
11537;SDS011;50159;49.426;11.182;2022-09-12T06:19:10;6.60;;;6.00;;
11537;SDS011;50159;49.426;11.182;2022-09-12T06:21:44;10.47;;;6.37;;
11537;SDS011;50159;49.426;11.182;2022-09-12T06:24:12;6.93;;;6.23;;
11537;SDS011;50159;49.426;11.182;2022-09-12T06:26:39;6.83;;;6.17;;
11537;SDS011;50159;49.426;11.182;2022-09-12T06:29:06;6.07;;;5.57;;
11537;SDS011;50159;49.426;11.182;2022-09-12T06:31:34;5.57;;;5.13;;
11537;SDS011;50159;49.426;11.182;2022-09-12T06:34:04;5.40;;;5.00;;
11537;SDS011;50159;49.426;11.182;2022-09-12T06:36:36;6.97;;;6.30;;
11537;SDS011;50159;49.426;11.182;2022-09-12T06:39:06;6.00;;;5.50;;
11537;SDS011;50159;49.426;11.182;2022-09-12T06:41:38;5.83;;;5.43;;
11537;SDS011;50159;49.426;11.182;2022-09-12T06:44:10;6.43;;;5.93;;
11537;SDS011;50159;49.426;11.182;2022-09-12T06:46:44;5.93;;;5.40;;
11537;SDS011;50159;49.426;11.182;2022-09-12T06:49:11;6.43;;;5.93;;
11537;SDS011;50159;49.426;11.182;2022-09-12T06:51:39;5.10;;;4.80;;
11537;SDS011;50159;49.426;11.182;2022-09-12T06:54:13;5.90;;;5.40;;
11537;SDS011;50159;49.426;11.182;2022-09-12T06:56:42;6.10;;;5.53;;
11537;SDS011;50159;49.426;11.182;2022-09-12T06:59:09;5.30;;;4.93;;
11537;SDS011;50159;49.426;11.182;2022-09-12T07:01:36;5.33;;;4.93;;
11537;SDS011;50159;49.426;11.182;2022-09-12T07:04:05;4.83;;;4.53;;
11537;SDS011;50159;49.426;11.182;2022-09-12T07:06:36;4.63;;;4.33;;
11537;SDS011;50159;49.426;11.182;2022-09-12T07:09:06;4.60;;;4.30;;
11537;SDS011;50159;49.426;11.182;2022-09-12T07:11:37;4.63;;;4.33;;
11537;SDS011;50159;49.426;11.182;2022-09-12T07:14:07;4.03;;;3.83;;
11537;SDS011;50159;49.426;11.182;2022-09-12T07:16:38;5.27;;;4.80;;
11537;SDS011;50159;49.426;11.182;2022-09-12T07:19:05;4.40;;;4.20;;
11537;SDS011;50159;49.426;11.182;2022-09-12T07:21:34;3.53;;;3.33;;
11537;SDS011;50159;49.426;11.182;2022-09-12T07:24:05;4.00;;;3.80;;
11537;SDS011;50159;49.426;11.182;2022-09-12T07:26:33;4.20;;;4.00;;
11537;SDS011;50159;49.426;11.182;2022-09-12T07:29:00;3.93;;;3.73;;
11537;SDS011;50159;49.426;11.182;2022-09-12T07:31:47;3.27;;;3.17;;
11537;SDS011;50159;49.426;11.182;2022-09-12T07:34:14;3.10;;;3.00;;
11537;SDS011;50159;49.426;11.182;2022-09-12T07:36:42;2.70;;;2.60;;
11537;SDS011;50159;49.426;11.182;2022-09-12T07:39:09;2.40;;;2.40;;
11537;SDS011;50159;49.426;11.182;2022-09-12T07:41:36;2.90;;;2.80;;
11537;SDS011;50159;49.426;11.182;2022-09-12T07:44:03;3.03;;;2.93;;
11537;SDS011;50159;49.426;11.182;2022-09-12T07:46:31;3.13;;;3.03;;
11537;SDS011;50159;49.426;11.182;2022-09-12T07:49:00;3.03;;;2.93;;
11537;SDS011;50159;49.426;11.182;2022-09-12T07:51:27;3.60;;;3.47;;
11537;SDS011;50159;49.426;11.182;2022-09-12T07:53:55;5.17;;;4.77;;
11537;SDS011;50159;49.426;11.182;2022-09-12T07:56:23;6.17;;;5.67;;
11537;SDS011;50159;49.426;11.182;2022-09-12T07:58:56;5.20;;;4.88;;
11537;SDS011;50159;49.426;11.182;2022-09-12T08:01:23;4.50;;;4.20;;
11537;SDS011;50159;49.426;11.182;2022-09-12T08:03:55;3.70;;;3.50;;
11537;SDS011;50159;49.426;11.182;2022-09-12T08:06:24;3.70;;;3.60;;
11537;SDS011;50159;49.426;11.182;2022-09-12T08:08:53;4.13;;;3.93;;
11537;SDS011;50159;49.426;11.182;2022-09-12T08:11:22;4.00;;;3.30;;
11537;SDS011;50159;49.426;11.182;2022-09-12T08:13:52;4.37;;;4.03;;
11537;SDS011;50159;49.426;11.182;2022-09-12T08:16:25;3.53;;;3.33;;
11537;SDS011;50159;49.426;11.182;2022-09-12T08:18:56;3.40;;;3.30;;
11537;SDS011;50159;49.426;11.182;2022-09-12T08:21:26;3.23;;;3.00;;
11537;SDS011;50159;49.426;11.182;2022-09-12T08:23:56;3.30;;;3.10;;
11537;SDS011;50159;49.426;11.182;2022-09-12T08:26:31;2.80;;;2.70;;
11537;SDS011;50159;49.426;11.182;2022-09-12T08:28:59;2.80;;;2.70;;
11537;SDS011;50159;49.426;11.182;2022-09-12T08:31:27;2.87;;;2.77;;
11537;SDS011;50159;49.426;11.182;2022-09-12T08:33:54;3.30;;;3.20;;
11537;SDS011;50159;49.426;11.182;2022-09-12T08:36:23;2.97;;;2.77;;
11537;SDS011;50159;49.426;11.182;2022-09-12T08:38:54;2.53;;;2.50;;
11537;SDS011;50159;49.426;11.182;2022-09-12T08:41:30;2.70;;;2.60;;
11537;SDS011;50159;49.426;11.182;2022-09-12T08:55:30;3.40;;;3.10;;
11537;SDS011;50159;49.426;11.182;2022-09-12T08:58:21;2.90;;;2.80;;
11537;SDS011;50159;49.426;11.182;2022-09-12T09:01:02;2.67;;;2.57;;
11537;SDS011;50159;49.426;11.182;2022-09-12T09:03:59;2.60;;;2.50;;
11537;SDS011;50159;49.426;11.182;2022-09-12T09:09:40;2.80;;;2.70;;
11537;SDS011;50159;49.426;11.182;2022-09-12T09:12:33;3.30;;;3.10;;
11537;SDS011;50159;49.426;11.182;2022-09-12T09:18:29;2.80;;;2.70;;
11537;SDS011;50159;49.426;11.182;2022-09-12T09:23:57;2.67;;;2.57;;
11537;SDS011;50159;49.426;11.182;2022-09-12T09:30:13;2.63;;;2.53;;
11537;SDS011;50159;49.426;11.182;2022-09-12T09:32:44;2.90;;;2.80;;
11537;SDS011;50159;49.426;11.182;2022-09-12T09:38:10;3.33;;;3.23;;
11537;SDS011;50159;49.426;11.182;2022-09-12T09:43:59;3.10;;;2.93;;
11537;SDS011;50159;49.426;11.182;2022-09-12T09:46:27;3.30;;;3.00;;
11537;SDS011;50159;49.426;11.182;2022-09-12T09:48:55;4.10;;;3.37;;
11537;SDS011;50159;49.426;11.182;2022-09-12T09:51:28;3.37;;;3.17;;
11537;SDS011;50159;49.426;11.182;2022-09-12T09:56:51;3.20;;;3.00;;
11537;SDS011;50159;49.426;11.182;2022-09-12T09:59:27;2.90;;;2.80;;
11537;SDS011;50159;49.426;11.182;2022-09-12T10:04:53;2.60;;;2.50;;
11537;SDS011;50159;49.426;11.182;2022-09-12T10:07:23;2.90;;;2.80;;
11537;SDS011;50159;49.426;11.182;2022-09-12T10:10:05;3.23;;;3.03;;
11537;SDS011;50159;49.426;11.182;2022-09-12T10:12:44;3.00;;;2.90;;
11537;SDS011;50159;49.426;11.182;2022-09-12T10:15:18;3.30;;;3.17;;
11537;SDS011;50159;49.426;11.182;2022-09-12T10:17:51;3.30;;;3.00;;
11537;SDS011;50159;49.426;11.182;2022-09-12T10:25:56;3.40;;;3.10;;
11537;SDS011;50159;49.426;11.182;2022-09-12T10:31:22;3.17;;;2.97;;
11537;SDS011;50159;49.426;11.182;2022-09-12T10:33:57;3.10;;;2.90;;
11537;SDS011;50159;49.426;11.182;2022-09-12T10:36:33;3.37;;;3.17;;
11537;SDS011;50159;49.426;11.182;2022-09-12T10:39:03;3.47;;;3.27;;
11537;SDS011;50159;49.426;11.182;2022-09-12T10:41:35;3.10;;;3.00;;
11537;SDS011;50159;49.426;11.182;2022-09-12T10:44:11;3.13;;;3.03;;
11537;SDS011;50159;49.426;11.182;2022-09-12T10:46:42;3.10;;;3.00;;
11537;SDS011;50159;49.426;11.182;2022-09-12T10:51:49;3.10;;;2.90;;
11537;SDS011;50159;49.426;11.182;2022-09-12T10:54:20;3.20;;;3.00;;
11537;SDS011;50159;49.426;11.182;2022-09-12T11:00:14;3.50;;;3.40;;
11537;SDS011;50159;49.426;11.182;2022-09-12T11:02:58;2.90;;;2.80;;
11537;SDS011;50159;49.426;11.182;2022-09-12T11:05:59;3.63;;;3.47;;
11537;SDS011;50159;49.426;11.182;2022-09-12T11:08:40;3.10;;;3.00;;
11537;SDS011;50159;49.426;11.182;2022-09-12T11:14:42;3.03;;;2.90;;
11537;SDS011;50159;49.426;11.182;2022-09-12T11:24:12;3.03;;;2.93;;
11537;SDS011;50159;49.426;11.182;2022-09-12T11:27:19;3.23;;;3.13;;
11537;SDS011;50159;49.426;11.182;2022-09-12T11:30:12;3.27;;;3.13;;
11537;SDS011;50159;49.426;11.182;2022-09-12T11:40:52;3.13;;;3.03;;
11537;SDS011;50159;49.426;11.182;2022-09-12T11:46:44;3.37;;;3.27;;
11537;SDS011;50159;49.426;11.182;2022-09-12T11:52:03;3.00;;;2.90;;
11537;SDS011;50159;49.426;11.182;2022-09-12T12:00:20;3.13;;;2.93;;
11537;SDS011;50159;49.426;11.182;2022-09-12T12:03:08;3.53;;;3.27;;
11537;SDS011;50159;49.426;11.182;2022-09-12T12:06:01;3.00;;;2.90;;
11537;SDS011;50159;49.426;11.182;2022-09-12T12:08:37;3.00;;;2.90;;
11537;SDS011;50159;49.426;11.182;2022-09-12T12:11:08;3.37;;;3.17;;
11537;SDS011;50159;49.426;11.182;2022-09-12T12:16:12;3.27;;;3.07;;
11537;SDS011;50159;49.426;11.182;2022-09-12T12:18:59;2.90;;;2.80;;
11537;SDS011;50159;49.426;11.182;2022-09-12T12:21:40;3.10;;;3.00;;
11537;SDS011;50159;49.426;11.182;2022-09-12T12:24:20;3.13;;;2.93;;
11537;SDS011;50159;49.426;11.182;2022-09-12T12:26:54;3.10;;;3.00;;
11537;SDS011;50159;49.426;11.182;2022-09-12T12:29:36;3.33;;;3.23;;
11537;SDS011;50159;49.426;11.182;2022-09-12T12:34:36;3.00;;;2.90;;
11537;SDS011;50159;49.426;11.182;2022-09-12T12:50:04;3.03;;;2.90;;
11537;SDS011;50159;49.426;11.182;2022-09-12T12:55:50;4.03;;;3.73;;
11537;SDS011;50159;49.426;11.182;2022-09-12T13:03:42;4.97;;;3.30;;
11537;SDS011;50159;49.426;11.182;2022-09-12T13:09:07;3.20;;;3.00;;
11537;SDS011;50159;49.426;11.182;2022-09-12T13:11:54;3.40;;;3.20;;
11537;SDS011;50159;49.426;11.182;2022-09-12T13:20:05;2.87;;;2.77;;
11537;SDS011;50159;49.426;11.182;2022-09-12T13:22:54;3.00;;;2.90;;
11537;SDS011;50159;49.426;11.182;2022-09-12T13:25:29;2.60;;;2.40;;
11537;SDS011;50159;49.426;11.182;2022-09-12T13:30:41;2.93;;;2.73;;
11537;SDS011;50159;49.426;11.182;2022-09-12T13:33:28;3.00;;;2.90;;
11537;SDS011;50159;49.426;11.182;2022-09-12T13:36:24;2.73;;;2.63;;
11537;SDS011;50159;49.426;11.182;2022-09-12T13:39:27;2.57;;;2.47;;
11537;SDS011;50159;49.426;11.182;2022-09-12T13:45:12;2.93;;;2.83;;
11537;SDS011;50159;49.426;11.182;2022-09-12T13:48:09;2.90;;;2.80;;
11537;SDS011;50159;49.426;11.182;2022-09-12T13:53:29;2.63;;;2.60;;
11537;SDS011;50159;49.426;11.182;2022-09-12T13:56:18;3.10;;;2.90;;
11537;SDS011;50159;49.426;11.182;2022-09-12T14:01:39;2.97;;;2.87;;
11537;SDS011;50159;49.426;11.182;2022-09-12T14:07:06;2.30;;;2.20;;
11537;SDS011;50159;49.426;11.182;2022-09-12T14:09:51;4.07;;;2.93;;
11537;SDS011;50159;49.426;11.182;2022-09-12T14:15:19;2.90;;;2.80;;
11537;SDS011;50159;49.426;11.182;2022-09-12T14:17:52;3.20;;;3.00;;
11537;SDS011;50159;49.426;11.182;2022-09-12T14:20:29;2.57;;;2.47;;
11537;SDS011;50159;49.426;11.182;2022-09-12T14:23:02;2.80;;;2.70;;
11537;SDS011;50159;49.426;11.182;2022-09-12T14:25:39;2.80;;;2.70;;
11537;SDS011;50159;49.426;11.182;2022-09-12T14:28:10;2.67;;;2.57;;
11537;SDS011;50159;49.426;11.182;2022-09-12T14:30:39;2.70;;;2.60;;
11537;SDS011;50159;49.426;11.182;2022-09-12T14:40:42;2.73;;;2.63;;
11537;SDS011;50159;49.426;11.182;2022-09-12T14:43:22;3.10;;;3.00;;
11537;SDS011;50159;49.426;11.182;2022-09-12T14:46:01;2.80;;;2.70;;
11537;SDS011;50159;49.426;11.182;2022-09-12T14:48:36;3.17;;;2.97;;
11537;SDS011;50159;49.426;11.182;2022-09-12T14:51:20;2.70;;;2.60;;
11537;SDS011;50159;49.426;11.182;2022-09-12T14:53:52;2.93;;;2.80;;
11537;SDS011;50159;49.426;11.182;2022-09-12T14:56:20;2.83;;;2.73;;
11537;SDS011;50159;49.426;11.182;2022-09-12T14:58:47;2.80;;;2.70;;
11537;SDS011;50159;49.426;11.182;2022-09-12T15:03:50;2.73;;;2.63;;
11537;SDS011;50159;49.426;11.182;2022-09-12T15:06:27;2.80;;;2.70;;
11537;SDS011;50159;49.426;11.182;2022-09-12T15:08:58;2.67;;;2.53;;
11537;SDS011;50159;49.426;11.182;2022-09-12T15:11:30;2.70;;;2.60;;
11537;SDS011;50159;49.426;11.182;2022-09-12T15:14:05;2.60;;;2.50;;
11537;SDS011;50159;49.426;11.182;2022-09-12T15:16:38;2.60;;;2.50;;
11537;SDS011;50159;49.426;11.182;2022-09-12T15:19:05;2.70;;;2.60;;
11537;SDS011;50159;49.426;11.182;2022-09-12T15:21:32;2.50;;;2.40;;
11537;SDS011;50159;49.426;11.182;2022-09-12T15:23:58;2.23;;;2.23;;
11537;SDS011;50159;49.426;11.182;2022-09-12T15:26:26;2.90;;;2.70;;
11537;SDS011;50159;49.426;11.182;2022-09-12T15:28:55;2.57;;;2.47;;
11537;SDS011;50159;49.426;11.182;2022-09-12T15:31:27;2.30;;;2.20;;
11537;SDS011;50159;49.426;11.182;2022-09-12T15:33:57;2.60;;;2.50;;
11537;SDS011;50159;49.426;11.182;2022-09-12T15:36:27;2.40;;;2.30;;
11537;SDS011;50159;49.426;11.182;2022-09-12T15:38:54;2.30;;;2.23;;
11537;SDS011;50159;49.426;11.182;2022-09-12T15:41:23;2.53;;;2.43;;
11537;SDS011;50159;49.426;11.182;2022-09-12T15:43:57;1.90;;;1.90;;
11537;SDS011;50159;49.426;11.182;2022-09-12T15:46:24;2.40;;;2.30;;
11537;SDS011;50159;49.426;11.182;2022-09-12T15:48:50;2.40;;;2.30;;
11537;SDS011;50159;49.426;11.182;2022-09-12T15:51:18;2.60;;;2.50;;
11537;SDS011;50159;49.426;11.182;2022-09-12T15:53:47;2.20;;;2.20;;
11537;SDS011;50159;49.426;11.182;2022-09-12T15:56:16;2.60;;;2.50;;
11537;SDS011;50159;49.426;11.182;2022-09-12T15:58:46;2.07;;;2.07;;
11537;SDS011;50159;49.426;11.182;2022-09-12T16:01:25;2.50;;;2.40;;
11537;SDS011;50159;49.426;11.182;2022-09-12T16:03:53;2.70;;;2.60;;
11537;SDS011;50159;49.426;11.182;2022-09-12T16:06:20;2.60;;;2.50;;
11537;SDS011;50159;49.426;11.182;2022-09-12T16:08:47;2.67;;;2.57;;
11537;SDS011;50159;49.426;11.182;2022-09-12T16:11:18;2.70;;;2.60;;
11537;SDS011;50159;49.426;11.182;2022-09-12T16:13:52;2.70;;;2.60;;
11537;SDS011;50159;49.426;11.182;2022-09-12T16:16:21;2.67;;;2.57;;
11537;SDS011;50159;49.426;11.182;2022-09-12T16:18:47;2.67;;;2.58;;
11537;SDS011;50159;49.426;11.182;2022-09-12T16:21:14;2.83;;;2.72;;
11537;SDS011;50159;49.426;11.182;2022-09-12T16:23:42;2.33;;;2.33;;
11537;SDS011;50159;49.426;11.182;2022-09-12T16:26:09;2.50;;;2.40;;
11537;SDS011;50159;49.426;11.182;2022-09-12T16:28:36;2.67;;;2.60;;
11537;SDS011;50159;49.426;11.182;2022-09-12T16:31:04;2.50;;;2.40;;
11537;SDS011;50159;49.426;11.182;2022-09-12T16:33:33;2.80;;;2.70;;
11537;SDS011;50159;49.426;11.182;2022-09-12T16:36:03;2.60;;;2.50;;
11537;SDS011;50159;49.426;11.182;2022-09-12T16:38:43;2.50;;;2.50;;
11537;SDS011;50159;49.426;11.182;2022-09-12T16:41:19;2.53;;;2.43;;
11537;SDS011;50159;49.426;11.182;2022-09-12T16:43:51;2.70;;;2.60;;
11537;SDS011;50159;49.426;11.182;2022-09-12T16:46:23;2.60;;;2.50;;
11537;SDS011;50159;49.426;11.182;2022-09-12T16:48:54;2.50;;;2.40;;
11537;SDS011;50159;49.426;11.182;2022-09-12T16:51:24;2.50;;;2.40;;
11537;SDS011;50159;49.426;11.182;2022-09-12T16:53:55;2.40;;;2.27;;
11537;SDS011;50159;49.426;11.182;2022-09-12T16:56:22;2.40;;;2.30;;
11537;SDS011;50159;49.426;11.182;2022-09-12T16:58:50;2.43;;;2.40;;
11537;SDS011;50159;49.426;11.182;2022-09-12T17:01:21;2.83;;;2.73;;
11537;SDS011;50159;49.426;11.182;2022-09-12T17:03:53;2.50;;;2.40;;
11537;SDS011;50159;49.426;11.182;2022-09-12T17:06:23;2.73;;;2.63;;
11537;SDS011;50159;49.426;11.182;2022-09-12T17:08:52;3.33;;;3.03;;
11537;SDS011;50159;49.426;11.182;2022-09-12T17:11:24;3.60;;;3.40;;
11537;SDS011;50159;49.426;11.182;2022-09-12T17:13:58;4.13;;;3.87;;
11537;SDS011;50159;49.426;11.182;2022-09-12T17:16:31;3.70;;;3.40;;
11537;SDS011;50159;49.426;11.182;2022-09-12T17:19:07;3.60;;;3.40;;
11537;SDS011;50159;49.426;11.182;2022-09-12T17:21:39;3.83;;;3.53;;
11537;SDS011;50159;49.426;11.182;2022-09-12T17:24:06;3.50;;;3.30;;
11537;SDS011;50159;49.426;11.182;2022-09-12T17:26:33;3.77;;;3.30;;
11537;SDS011;50159;49.426;11.182;2022-09-12T17:29:00;3.67;;;3.47;;
11537;SDS011;50159;49.426;11.182;2022-09-12T17:31:27;4.07;;;3.77;;
11537;SDS011;50159;49.426;11.182;2022-09-12T17:33:54;4.03;;;3.83;;
11537;SDS011;50159;49.426;11.182;2022-09-12T17:36:23;3.93;;;3.73;;
11537;SDS011;50159;49.426;11.182;2022-09-12T17:38:52;3.70;;;3.57;;
11537;SDS011;50159;49.426;11.182;2022-09-12T17:41:20;5.07;;;4.00;;
11537;SDS011;50159;49.426;11.182;2022-09-12T17:43:51;4.07;;;3.67;;
11537;SDS011;50159;49.426;11.182;2022-09-12T17:46:22;4.13;;;3.93;;
11537;SDS011;50159;49.426;11.182;2022-09-12T17:48:55;4.13;;;3.83;;
11537;SDS011;50159;49.426;11.182;2022-09-12T17:51:24;4.40;;;4.13;;
11537;SDS011;50159;49.426;11.182;2022-09-12T17:53:58;4.80;;;4.50;;
11537;SDS011;50159;49.426;11.182;2022-09-12T17:56:29;5.00;;;4.63;;
11537;SDS011;50159;49.426;11.182;2022-09-12T17:58:58;5.17;;;4.67;;
11537;SDS011;50159;49.426;11.182;2022-09-12T18:01:27;4.53;;;4.33;;
11537;SDS011;50159;49.426;11.182;2022-09-12T18:04:14;5.33;;;4.50;;
11537;SDS011;50159;49.426;11.182;2022-09-12T18:06:41;4.70;;;4.43;;
11537;SDS011;50159;49.426;11.182;2022-09-12T18:09:14;5.07;;;4.73;;